sensor_id;sensor_type;location;lat;lon;timestamp;P1;durP1;ratioP1;P2;durP2;ratioP2
76171;SDS011;64929;51.178;4.138;2023-04-15T00:01:20;2.95;;;2.58;;
76171;SDS011;64929;51.178;4.138;2023-04-15T00:03:46;4.53;;;2.90;;
76171;SDS011;64929;51.178;4.138;2023-04-15T00:06:14;4.07;;;2.67;;
76171;SDS011;64929;51.178;4.138;2023-04-15T00:08:40;3.70;;;2.75;;
76171;SDS011;64929;51.178;4.138;2023-04-15T00:11:06;5.95;;;3.50;;
76171;SDS011;64929;51.178;4.138;2023-04-15T00:13:32;3.83;;;2.72;;
76171;SDS011;64929;51.178;4.138;2023-04-15T00:15:58;5.88;;;3.53;;
76171;SDS011;64929;51.178;4.138;2023-04-15T00:18:24;6.70;;;3.28;;
76171;SDS011;64929;51.178;4.138;2023-04-15T00:20:50;4.25;;;3.10;;
76171;SDS011;64929;51.178;4.138;2023-04-15T00:23:16;5.47;;;3.45;;
76171;SDS011;64929;51.178;4.138;2023-04-15T00:25:42;4.15;;;3.20;;
76171;SDS011;64929;51.178;4.138;2023-04-15T00:28:08;4.55;;;3.15;;
76171;SDS011;64929;51.178;4.138;2023-04-15T00:30:34;3.30;;;2.97;;
76171;SDS011;64929;51.178;4.138;2023-04-15T00:33:00;4.50;;;3.50;;
76171;SDS011;64929;51.178;4.138;2023-04-15T00:35:28;4.07;;;3.03;;
76171;SDS011;64929;51.178;4.138;2023-04-15T00:37:56;4.45;;;2.85;;
76171;SDS011;64929;51.178;4.138;2023-04-15T00:40:22;4.65;;;2.85;;
76171;SDS011;64929;51.178;4.138;2023-04-15T00:42:48;3.03;;;2.42;;
76171;SDS011;64929;51.178;4.138;2023-04-15T00:45:14;5.03;;;2.42;;
76171;SDS011;64929;51.178;4.138;2023-04-15T00:47:40;4.53;;;2.20;;
76171;SDS011;64929;51.178;4.138;2023-04-15T00:50:07;3.03;;;2.15;;
76171;SDS011;64929;51.178;4.138;2023-04-15T00:52:34;3.10;;;2.40;;
76171;SDS011;64929;51.178;4.138;2023-04-15T00:55:00;3.60;;;2.55;;
76171;SDS011;64929;51.178;4.138;2023-04-15T00:57:26;2.50;;;2.10;;
76171;SDS011;64929;51.178;4.138;2023-04-15T00:59:53;4.03;;;2.58;;
76171;SDS011;64929;51.178;4.138;2023-04-15T01:02:20;7.32;;;2.92;;
76171;SDS011;64929;51.178;4.138;2023-04-15T01:04:46;3.80;;;2.72;;
76171;SDS011;64929;51.178;4.138;2023-04-15T01:07:12;4.70;;;2.75;;
76171;SDS011;64929;51.178;4.138;2023-04-15T01:09:38;5.28;;;2.70;;
76171;SDS011;64929;51.178;4.138;2023-04-15T01:12:04;3.53;;;2.42;;
76171;SDS011;64929;51.178;4.138;2023-04-15T01:14:31;2.90;;;2.20;;
76171;SDS011;64929;51.178;4.138;2023-04-15T01:16:58;4.50;;;2.22;;
76171;SDS011;64929;51.178;4.138;2023-04-15T01:19:23;2.75;;;2.40;;
76171;SDS011;64929;51.178;4.138;2023-04-15T01:21:50;3.20;;;2.35;;
76171;SDS011;64929;51.178;4.138;2023-04-15T01:24:17;2.65;;;2.42;;
76171;SDS011;64929;51.178;4.138;2023-04-15T01:26:43;2.65;;;2.30;;
76171;SDS011;64929;51.178;4.138;2023-04-15T01:29:10;1.75;;;1.65;;
76171;SDS011;64929;51.178;4.138;2023-04-15T01:31:37;4.13;;;2.22;;
76171;SDS011;64929;51.178;4.138;2023-04-15T01:34:03;2.85;;;2.30;;
76171;SDS011;64929;51.178;4.138;2023-04-15T01:36:28;2.15;;;1.92;;
76171;SDS011;64929;51.178;4.138;2023-04-15T01:38:55;2.67;;;2.20;;
76171;SDS011;64929;51.178;4.138;2023-04-15T01:41:25;3.42;;;2.25;;
76171;SDS011;64929;51.178;4.138;2023-04-15T01:43:52;2.55;;;2.17;;
76171;SDS011;64929;51.178;4.138;2023-04-15T01:46:17;2.67;;;1.85;;
76171;SDS011;64929;51.178;4.138;2023-04-15T01:48:43;4.10;;;2.58;;
76171;SDS011;64929;51.178;4.138;2023-04-15T01:51:09;2.22;;;2.03;;
76171;SDS011;64929;51.178;4.138;2023-04-15T01:53:36;4.28;;;2.25;;
76171;SDS011;64929;51.178;4.138;2023-04-15T01:56:02;3.13;;;2.00;;
76171;SDS011;64929;51.178;4.138;2023-04-15T01:58:28;2.25;;;1.85;;
76171;SDS011;64929;51.178;4.138;2023-04-15T02:00:54;2.47;;;2.05;;
76171;SDS011;64929;51.178;4.138;2023-04-15T02:03:20;2.10;;;1.77;;
76171;SDS011;64929;51.178;4.138;2023-04-15T02:05:45;2.97;;;2.20;;
76171;SDS011;64929;51.178;4.138;2023-04-15T02:08:11;3.10;;;2.08;;
76171;SDS011;64929;51.178;4.138;2023-04-15T02:10:37;2.53;;;1.90;;
76171;SDS011;64929;51.178;4.138;2023-04-15T02:13:03;2.05;;;1.90;;
76171;SDS011;64929;51.178;4.138;2023-04-15T02:15:29;1.90;;;1.80;;
76171;SDS011;64929;51.178;4.138;2023-04-15T02:17:54;2.70;;;1.88;;
76171;SDS011;64929;51.178;4.138;2023-04-15T02:20:21;1.85;;;1.75;;
76171;SDS011;64929;51.178;4.138;2023-04-15T02:22:47;2.72;;;2.03;;
76171;SDS011;64929;51.178;4.138;2023-04-15T02:25:13;2.60;;;1.80;;
76171;SDS011;64929;51.178;4.138;2023-04-15T02:27:41;2.40;;;2.00;;
76171;SDS011;64929;51.178;4.138;2023-04-15T02:30:07;2.92;;;2.10;;
76171;SDS011;64929;51.178;4.138;2023-04-15T02:32:34;2.75;;;1.83;;
76171;SDS011;64929;51.178;4.138;2023-04-15T02:35:04;2.28;;;2.08;;
76171;SDS011;64929;51.178;4.138;2023-04-15T02:37:31;5.20;;;2.00;;
76171;SDS011;64929;51.178;4.138;2023-04-15T02:40:01;4.00;;;1.80;;
76171;SDS011;64929;51.178;4.138;2023-04-15T02:42:27;3.55;;;1.88;;
76171;SDS011;64929;51.178;4.138;2023-04-15T02:44:54;1.80;;;1.55;;
76171;SDS011;64929;51.178;4.138;2023-04-15T02:47:20;2.03;;;1.83;;
76171;SDS011;64929;51.178;4.138;2023-04-15T02:49:46;5.45;;;2.05;;
76171;SDS011;64929;51.178;4.138;2023-04-15T02:52:12;3.03;;;2.33;;
76171;SDS011;64929;51.178;4.138;2023-04-15T02:54:38;4.57;;;2.10;;
76171;SDS011;64929;51.178;4.138;2023-04-15T02:57:03;2.85;;;2.22;;
76171;SDS011;64929;51.178;4.138;2023-04-15T02:59:30;3.05;;;2.22;;
76171;SDS011;64929;51.178;4.138;2023-04-15T03:01:56;3.55;;;2.15;;
76171;SDS011;64929;51.178;4.138;2023-04-15T03:04:24;2.20;;;2.00;;
76171;SDS011;64929;51.178;4.138;2023-04-15T03:06:50;2.65;;;1.90;;
76171;SDS011;64929;51.178;4.138;2023-04-15T03:09:16;3.10;;;2.42;;
76171;SDS011;64929;51.178;4.138;2023-04-15T03:11:42;2.30;;;1.73;;
76171;SDS011;64929;51.178;4.138;2023-04-15T03:14:07;3.58;;;2.15;;
76171;SDS011;64929;51.178;4.138;2023-04-15T03:16:33;3.03;;;1.90;;
76171;SDS011;64929;51.178;4.138;2023-04-15T03:18:59;2.75;;;2.30;;
76171;SDS011;64929;51.178;4.138;2023-04-15T03:21:25;2.35;;;2.15;;
76171;SDS011;64929;51.178;4.138;2023-04-15T03:23:50;5.78;;;2.28;;
76171;SDS011;64929;51.178;4.138;2023-04-15T03:26:23;3.33;;;2.50;;
76171;SDS011;64929;51.178;4.138;2023-04-15T03:28:53;6.60;;;2.45;;
76171;SDS011;64929;51.178;4.138;2023-04-15T03:31:19;5.50;;;2.55;;
76171;SDS011;64929;51.178;4.138;2023-04-15T03:33:45;6.28;;;2.30;;
76171;SDS011;64929;51.178;4.138;2023-04-15T03:36:11;3.50;;;2.55;;
76171;SDS011;64929;51.178;4.138;2023-04-15T03:38:36;4.15;;;1.98;;
76171;SDS011;64929;51.178;4.138;2023-04-15T03:41:02;3.88;;;2.60;;
76171;SDS011;64929;51.178;4.138;2023-04-15T03:43:28;3.63;;;2.28;;
76171;SDS011;64929;51.178;4.138;2023-04-15T03:45:53;3.17;;;2.13;;
76171;SDS011;64929;51.178;4.138;2023-04-15T03:48:19;2.58;;;2.17;;
76171;SDS011;64929;51.178;4.138;2023-04-15T03:50:45;4.05;;;2.33;;
76171;SDS011;64929;51.178;4.138;2023-04-15T03:53:11;2.95;;;2.28;;
76171;SDS011;64929;51.178;4.138;2023-04-15T03:55:36;2.25;;;2.00;;
76171;SDS011;64929;51.178;4.138;2023-04-15T03:58:02;5.00;;;2.38;;
76171;SDS011;64929;51.178;4.138;2023-04-15T04:00:28;3.78;;;2.50;;
76171;SDS011;64929;51.178;4.138;2023-04-15T04:02:53;2.67;;;2.03;;
76171;SDS011;64929;51.178;4.138;2023-04-15T04:05:19;3.65;;;2.85;;
76171;SDS011;64929;51.178;4.138;2023-04-15T04:07:45;3.15;;;2.53;;
76171;SDS011;64929;51.178;4.138;2023-04-15T04:10:11;5.10;;;2.80;;
76171;SDS011;64929;51.178;4.138;2023-04-15T04:12:37;4.63;;;3.38;;
76171;SDS011;64929;51.178;4.138;2023-04-15T04:15:03;7.22;;;2.60;;
76171;SDS011;64929;51.178;4.138;2023-04-15T04:17:29;4.13;;;2.88;;
76171;SDS011;64929;51.178;4.138;2023-04-15T04:19:55;3.60;;;2.50;;
76171;SDS011;64929;51.178;4.138;2023-04-15T04:22:21;3.80;;;2.50;;
76171;SDS011;64929;51.178;4.138;2023-04-15T04:24:48;3.80;;;2.85;;
76171;SDS011;64929;51.178;4.138;2023-04-15T04:27:14;4.22;;;2.45;;
76171;SDS011;64929;51.178;4.138;2023-04-15T04:29:40;9.18;;;3.33;;
76171;SDS011;64929;51.178;4.138;2023-04-15T04:32:05;4.22;;;2.78;;
76171;SDS011;64929;51.178;4.138;2023-04-15T04:34:31;5.13;;;2.33;;
76171;SDS011;64929;51.178;4.138;2023-04-15T04:36:57;5.63;;;3.53;;
76171;SDS011;64929;51.178;4.138;2023-04-15T04:39:22;3.30;;;2.45;;
76171;SDS011;64929;51.178;4.138;2023-04-15T04:41:48;4.70;;;2.75;;
76171;SDS011;64929;51.178;4.138;2023-04-15T04:44:16;9.15;;;3.38;;
76171;SDS011;64929;51.178;4.138;2023-04-15T04:46:42;5.85;;;2.63;;
76171;SDS011;64929;51.178;4.138;2023-04-15T04:49:08;3.70;;;2.85;;
76171;SDS011;64929;51.178;4.138;2023-04-15T04:51:33;5.05;;;2.60;;
76171;SDS011;64929;51.178;4.138;2023-04-15T04:53:59;6.35;;;2.90;;
76171;SDS011;64929;51.178;4.138;2023-04-15T04:56:25;6.72;;;3.00;;
76171;SDS011;64929;51.178;4.138;2023-04-15T04:58:51;4.03;;;2.70;;
76171;SDS011;64929;51.178;4.138;2023-04-15T05:01:17;3.75;;;2.70;;
76171;SDS011;64929;51.178;4.138;2023-04-15T05:03:42;3.75;;;2.60;;
76171;SDS011;64929;51.178;4.138;2023-04-15T05:06:08;3.90;;;2.67;;
76171;SDS011;64929;51.178;4.138;2023-04-15T05:08:34;6.30;;;2.85;;
76171;SDS011;64929;51.178;4.138;2023-04-15T05:11:00;5.65;;;3.00;;
76171;SDS011;64929;51.178;4.138;2023-04-15T05:13:26;6.18;;;3.15;;
76171;SDS011;64929;51.178;4.138;2023-04-15T05:15:52;5.53;;;3.38;;
76171;SDS011;64929;51.178;4.138;2023-04-15T05:18:18;4.57;;;3.17;;
76171;SDS011;64929;51.178;4.138;2023-04-15T05:20:43;6.60;;;3.28;;
76171;SDS011;64929;51.178;4.138;2023-04-15T05:23:09;4.97;;;2.85;;
76171;SDS011;64929;51.178;4.138;2023-04-15T05:25:35;5.57;;;2.85;;
76171;SDS011;64929;51.178;4.138;2023-04-15T05:28:00;3.63;;;2.80;;
76171;SDS011;64929;51.178;4.138;2023-04-15T05:30:26;3.42;;;2.70;;
76171;SDS011;64929;51.178;4.138;2023-04-15T05:32:52;3.92;;;3.08;;
76171;SDS011;64929;51.178;4.138;2023-04-15T05:35:17;5.20;;;2.72;;
76171;SDS011;64929;51.178;4.138;2023-04-15T05:37:43;9.15;;;3.33;;
76171;SDS011;64929;51.178;4.138;2023-04-15T05:40:10;6.20;;;3.05;;
76171;SDS011;64929;51.178;4.138;2023-04-15T05:42:36;6.60;;;3.33;;
76171;SDS011;64929;51.178;4.138;2023-04-15T05:45:01;6.20;;;3.30;;
76171;SDS011;64929;51.178;4.138;2023-04-15T05:47:29;5.93;;;3.88;;
76171;SDS011;64929;51.178;4.138;2023-04-15T05:49:55;5.03;;;3.50;;
76171;SDS011;64929;51.178;4.138;2023-04-15T05:52:23;8.35;;;3.45;;
76171;SDS011;64929;51.178;4.138;2023-04-15T05:54:48;7.18;;;3.33;;
76171;SDS011;64929;51.178;4.138;2023-04-15T05:57:14;6.60;;;3.88;;
76171;SDS011;64929;51.178;4.138;2023-04-15T05:59:40;8.10;;;3.47;;
76171;SDS011;64929;51.178;4.138;2023-04-15T06:02:06;6.15;;;3.30;;
76171;SDS011;64929;51.178;4.138;2023-04-15T06:04:33;6.60;;;3.20;;
76171;SDS011;64929;51.178;4.138;2023-04-15T06:06:59;7.15;;;3.67;;
76171;SDS011;64929;51.178;4.138;2023-04-15T06:09:25;7.05;;;3.75;;
76171;SDS011;64929;51.178;4.138;2023-04-15T06:11:51;6.32;;;3.85;;
76171;SDS011;64929;51.178;4.138;2023-04-15T06:14:17;8.90;;;3.70;;
76171;SDS011;64929;51.178;4.138;2023-04-15T06:16:43;6.80;;;3.47;;
76171;SDS011;64929;51.178;4.138;2023-04-15T06:19:08;6.05;;;3.88;;
76171;SDS011;64929;51.178;4.138;2023-04-15T06:21:34;9.45;;;3.78;;
76171;SDS011;64929;51.178;4.138;2023-04-15T06:24:00;8.95;;;3.95;;
76171;SDS011;64929;51.178;4.138;2023-04-15T06:26:26;7.40;;;3.65;;
76171;SDS011;64929;51.178;4.138;2023-04-15T06:28:52;6.57;;;3.80;;
76171;SDS011;64929;51.178;4.138;2023-04-15T06:31:18;7.05;;;4.20;;
76171;SDS011;64929;51.178;4.138;2023-04-15T06:33:44;5.43;;;4.18;;
76171;SDS011;64929;51.178;4.138;2023-04-15T06:36:09;7.00;;;4.20;;
76171;SDS011;64929;51.178;4.138;2023-04-15T06:38:35;9.60;;;4.45;;
76171;SDS011;64929;51.178;4.138;2023-04-15T06:41:01;7.05;;;4.25;;
76171;SDS011;64929;51.178;4.138;2023-04-15T06:43:28;8.77;;;4.85;;
76171;SDS011;64929;51.178;4.138;2023-04-15T06:45:54;6.60;;;4.68;;
76171;SDS011;64929;51.178;4.138;2023-04-15T06:48:20;6.68;;;5.20;;
76171;SDS011;64929;51.178;4.138;2023-04-15T06:50:46;8.27;;;5.47;;
76171;SDS011;64929;51.178;4.138;2023-04-15T06:53:13;9.20;;;5.80;;
76171;SDS011;64929;51.178;4.138;2023-04-15T06:55:39;9.98;;;6.47;;
76171;SDS011;64929;51.178;4.138;2023-04-15T06:58:06;13.30;;;6.63;;
76171;SDS011;64929;51.178;4.138;2023-04-15T07:00:32;8.93;;;5.53;;
76171;SDS011;64929;51.178;4.138;2023-04-15T07:02:58;11.40;;;6.40;;
76171;SDS011;64929;51.178;4.138;2023-04-15T07:05:28;12.65;;;6.45;;
76171;SDS011;64929;51.178;4.138;2023-04-15T07:07:55;10.52;;;6.32;;
76171;SDS011;64929;51.178;4.138;2023-04-15T07:10:21;16.52;;;6.80;;
76171;SDS011;64929;51.178;4.138;2023-04-15T07:12:47;9.63;;;6.60;;
76171;SDS011;64929;51.178;4.138;2023-04-15T07:15:12;11.98;;;6.50;;
76171;SDS011;64929;51.178;4.138;2023-04-15T07:17:39;12.90;;;7.07;;
76171;SDS011;64929;51.178;4.138;2023-04-15T07:20:06;9.57;;;6.40;;
76171;SDS011;64929;51.178;4.138;2023-04-15T07:22:32;9.20;;;6.32;;
76171;SDS011;64929;51.178;4.138;2023-04-15T07:24:58;12.32;;;7.53;;
76171;SDS011;64929;51.178;4.138;2023-04-15T07:27:23;14.90;;;7.07;;
76171;SDS011;64929;51.178;4.138;2023-04-15T07:29:50;9.98;;;6.47;;
76171;SDS011;64929;51.178;4.138;2023-04-15T07:32:16;11.15;;;6.85;;
76171;SDS011;64929;51.178;4.138;2023-04-15T07:34:42;10.32;;;6.60;;
76171;SDS011;64929;51.178;4.138;2023-04-15T07:37:08;9.05;;;6.15;;
76171;SDS011;64929;51.178;4.138;2023-04-15T07:39:34;7.35;;;5.90;;
76171;SDS011;64929;51.178;4.138;2023-04-15T07:42:01;10.98;;;6.15;;
76171;SDS011;64929;51.178;4.138;2023-04-15T07:44:27;10.32;;;6.13;;
76171;SDS011;64929;51.178;4.138;2023-04-15T07:46:53;9.45;;;5.95;;
76171;SDS011;64929;51.178;4.138;2023-04-15T07:49:20;12.30;;;7.10;;
76171;SDS011;64929;51.178;4.138;2023-04-15T07:51:46;9.30;;;6.13;;
76171;SDS011;64929;51.178;4.138;2023-04-15T07:54:12;9.55;;;5.70;;
76171;SDS011;64929;51.178;4.138;2023-04-15T07:56:38;10.23;;;6.00;;
76171;SDS011;64929;51.178;4.138;2023-04-15T07:59:04;13.20;;;6.15;;
76171;SDS011;64929;51.178;4.138;2023-04-15T08:01:30;10.90;;;5.93;;
76171;SDS011;64929;51.178;4.138;2023-04-15T08:03:57;10.15;;;5.70;;
76171;SDS011;64929;51.178;4.138;2023-04-15T08:06:26;7.77;;;5.60;;
76171;SDS011;64929;51.178;4.138;2023-04-15T08:08:52;9.63;;;5.90;;
76171;SDS011;64929;51.178;4.138;2023-04-15T08:11:19;10.60;;;5.80;;
76171;SDS011;64929;51.178;4.138;2023-04-15T08:13:45;12.55;;;5.70;;
76171;SDS011;64929;51.178;4.138;2023-04-15T08:16:21;12.32;;;5.72;;
76171;SDS011;64929;51.178;4.138;2023-04-15T08:18:49;10.30;;;5.40;;
76171;SDS011;64929;51.178;4.138;2023-04-15T08:21:16;9.30;;;5.65;;
76171;SDS011;64929;51.178;4.138;2023-04-15T08:23:43;8.27;;;5.40;;
76171;SDS011;64929;51.178;4.138;2023-04-15T08:26:10;10.15;;;5.05;;
76171;SDS011;64929;51.178;4.138;2023-04-15T08:28:37;6.20;;;5.38;;
76171;SDS011;64929;51.178;4.138;2023-04-15T08:31:04;13.15;;;5.15;;
76171;SDS011;64929;51.178;4.138;2023-04-15T08:33:30;5.78;;;4.78;;
76171;SDS011;64929;51.178;4.138;2023-04-15T08:35:55;9.57;;;5.32;;
76171;SDS011;64929;51.178;4.138;2023-04-15T08:38:21;11.95;;;5.28;;
76171;SDS011;64929;51.178;4.138;2023-04-15T08:40:47;9.07;;;5.20;;
76171;SDS011;64929;51.178;4.138;2023-04-15T08:43:23;8.90;;;5.60;;
76171;SDS011;64929;51.178;4.138;2023-04-15T08:45:53;7.10;;;4.47;;
76171;SDS011;64929;51.178;4.138;2023-04-15T08:48:20;7.68;;;5.07;;
76171;SDS011;64929;51.178;4.138;2023-04-15T08:50:48;7.10;;;5.13;;
76171;SDS011;64929;51.178;4.138;2023-04-15T08:53:16;8.95;;;4.85;;
76171;SDS011;64929;51.178;4.138;2023-04-15T08:55:43;9.95;;;4.68;;
76171;SDS011;64929;51.178;4.138;2023-04-15T08:58:12;8.32;;;5.00;;
76171;SDS011;64929;51.178;4.138;2023-04-15T09:00:41;7.85;;;4.95;;
76171;SDS011;64929;51.178;4.138;2023-04-15T09:03:07;6.82;;;4.22;;
76171;SDS011;64929;51.178;4.138;2023-04-15T09:05:36;5.18;;;3.28;;
76171;SDS011;64929;51.178;4.138;2023-04-15T09:08:03;5.88;;;4.05;;
76171;SDS011;64929;51.178;4.138;2023-04-15T09:10:30;5.57;;;4.13;;
76171;SDS011;64929;51.178;4.138;2023-04-15T09:12:56;5.20;;;3.28;;
76171;SDS011;64929;51.178;4.138;2023-04-15T09:15:26;4.93;;;3.47;;
76171;SDS011;64929;51.178;4.138;2023-04-15T09:17:53;6.30;;;3.17;;
76171;SDS011;64929;51.178;4.138;2023-04-15T09:20:19;6.47;;;2.97;;
76171;SDS011;64929;51.178;4.138;2023-04-15T09:22:46;3.40;;;2.60;;
76171;SDS011;64929;51.178;4.138;2023-04-15T09:27:51;4.32;;;2.70;;
76171;SDS011;64929;51.178;4.138;2023-04-15T09:30:18;4.13;;;2.90;;
76171;SDS011;64929;51.178;4.138;2023-04-15T09:32:51;4.57;;;3.53;;
76171;SDS011;64929;51.178;4.138;2023-04-15T09:35:21;4.35;;;2.70;;
76171;SDS011;64929;51.178;4.138;2023-04-15T09:37:48;4.93;;;2.90;;
76171;SDS011;64929;51.178;4.138;2023-04-15T09:40:29;4.93;;;2.97;;
76171;SDS011;64929;51.178;4.138;2023-04-15T09:42:58;8.45;;;3.72;;
76171;SDS011;64929;51.178;4.138;2023-04-15T09:45:26;4.25;;;2.53;;
76171;SDS011;64929;51.178;4.138;2023-04-15T09:47:52;4.35;;;3.13;;
76171;SDS011;64929;51.178;4.138;2023-04-15T09:50:18;3.58;;;2.63;;
76171;SDS011;64929;51.178;4.138;2023-04-15T09:52:44;3.65;;;2.83;;
76171;SDS011;64929;51.178;4.138;2023-04-15T09:55:11;6.15;;;2.70;;
76171;SDS011;64929;51.178;4.138;2023-04-15T09:57:38;4.05;;;2.50;;
76171;SDS011;64929;51.178;4.138;2023-04-15T10:00:08;5.88;;;2.40;;
76171;SDS011;64929;51.178;4.138;2023-04-15T10:02:35;6.00;;;2.80;;
76171;SDS011;64929;51.178;4.138;2023-04-15T10:05:02;2.53;;;2.30;;
76171;SDS011;64929;51.178;4.138;2023-04-15T10:07:28;4.70;;;2.25;;
76171;SDS011;64929;51.178;4.138;2023-04-15T10:09:54;2.75;;;2.20;;
76171;SDS011;64929;51.178;4.138;2023-04-15T10:12:21;4.55;;;2.67;;
76171;SDS011;64929;51.178;4.138;2023-04-15T10:14:48;2.95;;;1.80;;
76171;SDS011;64929;51.178;4.138;2023-04-15T10:17:24;4.00;;;1.60;;
76171;SDS011;64929;51.178;4.138;2023-04-15T10:19:52;2.28;;;1.92;;
76171;SDS011;64929;51.178;4.138;2023-04-15T10:22:20;2.33;;;2.10;;
76171;SDS011;64929;51.178;4.138;2023-04-15T10:24:51;2.50;;;2.00;;
76171;SDS011;64929;51.178;4.138;2023-04-15T10:27:17;2.30;;;2.10;;
76171;SDS011;64929;51.178;4.138;2023-04-15T10:29:44;4.50;;;2.00;;
76171;SDS011;64929;51.178;4.138;2023-04-15T10:32:10;2.90;;;1.40;;
76171;SDS011;64929;51.178;4.138;2023-04-15T10:34:37;3.28;;;1.55;;
76171;SDS011;64929;51.178;4.138;2023-04-15T10:37:04;3.20;;;1.88;;
76171;SDS011;64929;51.178;4.138;2023-04-15T10:44:43;3.60;;;2.10;;
76171;SDS011;64929;51.178;4.138;2023-04-15T10:47:13;1.92;;;1.60;;
76171;SDS011;64929;51.178;4.138;2023-04-15T10:49:49;4.43;;;2.20;;
76171;SDS011;64929;51.178;4.138;2023-04-15T10:52:21;3.25;;;2.45;;
76171;SDS011;64929;51.178;4.138;2023-04-15T10:54:48;3.05;;;2.33;;
76171;SDS011;64929;51.178;4.138;2023-04-15T10:57:15;3.90;;;2.28;;
76171;SDS011;64929;51.178;4.138;2023-04-15T11:02:44;5.20;;;1.80;;
76171;SDS011;64929;51.178;4.138;2023-04-15T11:05:11;2.13;;;1.58;;
76171;SDS011;64929;51.178;4.138;2023-04-15T11:07:54;2.13;;;1.33;;
76171;SDS011;64929;51.178;4.138;2023-04-15T11:12:56;2.63;;;1.85;;
76171;SDS011;64929;51.178;4.138;2023-04-15T11:15:29;3.28;;;1.90;;
76171;SDS011;64929;51.178;4.138;2023-04-15T11:18:11;6.43;;;2.55;;
76171;SDS011;64929;51.178;4.138;2023-04-15T11:20:48;3.25;;;2.03;;
76171;SDS011;64929;51.178;4.138;2023-04-15T11:23:37;3.33;;;2.13;;
76171;SDS011;64929;51.178;4.138;2023-04-15T11:26:08;3.35;;;2.20;;
76171;SDS011;64929;51.178;4.138;2023-04-15T11:28:36;3.45;;;2.50;;
76171;SDS011;64929;51.178;4.138;2023-04-15T11:31:11;2.58;;;1.63;;
76171;SDS011;64929;51.178;4.138;2023-04-15T11:33:59;5.70;;;2.00;;
76171;SDS011;64929;51.178;4.138;2023-04-15T11:36:27;3.72;;;2.03;;
76171;SDS011;64929;51.178;4.138;2023-04-15T11:38:56;5.35;;;1.40;;
76171;SDS011;64929;51.178;4.138;2023-04-15T11:41:23;1.80;;;1.45;;
76171;SDS011;64929;51.178;4.138;2023-04-15T11:43:49;2.25;;;1.33;;
76171;SDS011;64929;51.178;4.138;2023-04-15T11:46:15;2.80;;;1.45;;
76171;SDS011;64929;51.178;4.138;2023-04-15T11:48:42;1.25;;;1.10;;
76171;SDS011;64929;51.178;4.138;2023-04-15T11:51:09;1.75;;;1.50;;
76171;SDS011;64929;51.178;4.138;2023-04-15T11:53:40;1.50;;;1.30;;
76171;SDS011;64929;51.178;4.138;2023-04-15T11:56:18;2.28;;;1.83;;
76171;SDS011;64929;51.178;4.138;2023-04-15T11:58:45;2.95;;;2.30;;
76171;SDS011;64929;51.178;4.138;2023-04-15T12:01:11;3.60;;;2.40;;
76171;SDS011;64929;51.178;4.138;2023-04-15T12:03:38;2.95;;;2.00;;
76171;SDS011;64929;51.178;4.138;2023-04-15T12:11:34;6.03;;;2.05;;
76171;SDS011;64929;51.178;4.138;2023-04-15T12:16:44;4.35;;;1.98;;
76171;SDS011;64929;51.178;4.138;2023-04-15T12:19:14;5.43;;;2.05;;
76171;SDS011;64929;51.178;4.138;2023-04-15T12:22:04;2.25;;;1.45;;
76171;SDS011;64929;51.178;4.138;2023-04-15T12:24:36;3.00;;;1.90;;
76171;SDS011;64929;51.178;4.138;2023-04-15T12:29:38;2.28;;;1.20;;
76171;SDS011;64929;51.178;4.138;2023-04-15T12:32:05;1.85;;;1.10;;
76171;SDS011;64929;51.178;4.138;2023-04-15T12:37:01;2.95;;;1.55;;
76171;SDS011;64929;51.178;4.138;2023-04-15T12:39:33;1.88;;;1.15;;
76171;SDS011;64929;51.178;4.138;2023-04-15T12:42:01;3.05;;;1.70;;
76171;SDS011;64929;51.178;4.138;2023-04-15T12:44:31;3.92;;;1.70;;
76171;SDS011;64929;51.178;4.138;2023-04-15T12:46:58;2.67;;;1.50;;
76171;SDS011;64929;51.178;4.138;2023-04-15T12:49:24;3.05;;;1.30;;
76171;SDS011;64929;51.178;4.138;2023-04-15T12:51:51;4.00;;;1.33;;
76171;SDS011;64929;51.178;4.138;2023-04-15T12:54:19;1.92;;;1.30;;
76171;SDS011;64929;51.178;4.138;2023-04-15T12:56:45;2.85;;;1.50;;
76171;SDS011;64929;51.178;4.138;2023-04-15T12:59:12;2.65;;;1.63;;
76171;SDS011;64929;51.178;4.138;2023-04-15T13:01:38;1.85;;;1.42;;
76171;SDS011;64929;51.178;4.138;2023-04-15T13:04:04;3.65;;;1.60;;
76171;SDS011;64929;51.178;4.138;2023-04-15T13:06:30;1.50;;;1.40;;
76171;SDS011;64929;51.178;4.138;2023-04-15T13:09:00;5.45;;;1.77;;
76171;SDS011;64929;51.178;4.138;2023-04-15T13:13:55;3.47;;;1.52;;
76171;SDS011;64929;51.178;4.138;2023-04-15T13:16:21;0.93;;;0.80;;
76171;SDS011;64929;51.178;4.138;2023-04-15T13:18:47;1.75;;;0.80;;
76171;SDS011;64929;51.178;4.138;2023-04-15T13:21:13;4.00;;;0.98;;
76171;SDS011;64929;51.178;4.138;2023-04-15T13:23:42;1.65;;;0.88;;
76171;SDS011;64929;51.178;4.138;2023-04-15T13:26:07;1.50;;;0.85;;
76171;SDS011;64929;51.178;4.138;2023-04-15T13:28:33;0.68;;;0.68;;
76171;SDS011;64929;51.178;4.138;2023-04-15T13:30:59;1.83;;;1.00;;
76171;SDS011;64929;51.178;4.138;2023-04-15T13:33:25;1.98;;;1.20;;
76171;SDS011;64929;51.178;4.138;2023-04-15T13:35:51;3.08;;;1.55;;
76171;SDS011;64929;51.178;4.138;2023-04-15T13:38:17;3.05;;;1.30;;
76171;SDS011;64929;51.178;4.138;2023-04-15T13:40:43;3.00;;;1.70;;
76171;SDS011;64929;51.178;4.138;2023-04-15T13:43:09;2.72;;;1.40;;
76171;SDS011;64929;51.178;4.138;2023-04-15T13:45:35;1.83;;;1.40;;
76171;SDS011;64929;51.178;4.138;2023-04-15T13:48:01;6.13;;;1.90;;
76171;SDS011;64929;51.178;4.138;2023-04-15T13:50:26;6.10;;;1.83;;
76171;SDS011;64929;51.178;4.138;2023-04-15T13:52:53;3.30;;;1.77;;
76171;SDS011;64929;51.178;4.138;2023-04-15T13:55:18;1.85;;;1.65;;
76171;SDS011;64929;51.178;4.138;2023-04-15T13:57:44;3.20;;;1.55;;
76171;SDS011;64929;51.178;4.138;2023-04-15T14:00:10;3.97;;;2.10;;
76171;SDS011;64929;51.178;4.138;2023-04-15T14:02:36;5.68;;;1.92;;
76171;SDS011;64929;51.178;4.138;2023-04-15T14:05:02;2.88;;;1.75;;
76171;SDS011;64929;51.178;4.138;2023-04-15T14:07:28;3.97;;;2.30;;
76171;SDS011;64929;51.178;4.138;2023-04-15T14:09:55;3.83;;;2.33;;
76171;SDS011;64929;51.178;4.138;2023-04-15T14:12:20;4.50;;;2.30;;
76171;SDS011;64929;51.178;4.138;2023-04-15T14:14:46;4.30;;;2.50;;
76171;SDS011;64929;51.178;4.138;2023-04-15T14:17:12;5.15;;;2.45;;
76171;SDS011;64929;51.178;4.138;2023-04-15T14:19:38;3.40;;;2.10;;
76171;SDS011;64929;51.178;4.138;2023-04-15T14:22:04;5.70;;;2.33;;
76171;SDS011;64929;51.178;4.138;2023-04-15T14:24:30;2.67;;;2.00;;
76171;SDS011;64929;51.178;4.138;2023-04-15T14:26:55;4.00;;;2.22;;
76171;SDS011;64929;51.178;4.138;2023-04-15T14:29:22;2.47;;;2.17;;
76171;SDS011;64929;51.178;4.138;2023-04-15T14:31:48;5.75;;;2.40;;
76171;SDS011;64929;51.178;4.138;2023-04-15T14:34:14;3.75;;;2.63;;
76171;SDS011;64929;51.178;4.138;2023-04-15T14:36:40;2.40;;;2.20;;
76171;SDS011;64929;51.178;4.138;2023-04-15T14:39:06;6.22;;;2.28;;
76171;SDS011;64929;51.178;4.138;2023-04-15T14:41:32;3.90;;;2.20;;
76171;SDS011;64929;51.178;4.138;2023-04-15T14:43:58;3.10;;;2.10;;
76171;SDS011;64929;51.178;4.138;2023-04-15T14:46:24;3.53;;;2.42;;
76171;SDS011;64929;51.178;4.138;2023-04-15T14:48:50;3.85;;;1.98;;
76171;SDS011;64929;51.178;4.138;2023-04-15T14:51:16;4.82;;;2.58;;
76171;SDS011;64929;51.178;4.138;2023-04-15T14:53:42;3.55;;;2.35;;
76171;SDS011;64929;51.178;4.138;2023-04-15T14:56:08;4.28;;;1.98;;
76171;SDS011;64929;51.178;4.138;2023-04-15T14:58:34;2.38;;;1.83;;
76171;SDS011;64929;51.178;4.138;2023-04-15T15:01:00;6.60;;;2.40;;
76171;SDS011;64929;51.178;4.138;2023-04-15T15:03:26;2.08;;;1.83;;
76171;SDS011;64929;51.178;4.138;2023-04-15T15:05:53;2.47;;;1.90;;
76171;SDS011;64929;51.178;4.138;2023-04-15T15:08:19;3.67;;;1.80;;
76171;SDS011;64929;51.178;4.138;2023-04-15T15:10:44;3.25;;;1.90;;
76171;SDS011;64929;51.178;4.138;2023-04-15T15:13:10;3.33;;;1.90;;
76171;SDS011;64929;51.178;4.138;2023-04-15T15:15:36;2.53;;;1.55;;